createdAt,value
2019-03-27T00:03:05.145Z,2.83
2019-03-27T00:06:14.663Z,2.70
2019-03-27T00:09:34.271Z,3.10
2019-03-27T00:12:43.848Z,3.30
2019-03-27T00:15:53.286Z,2.43
2019-03-27T00:19:02.857Z,2.77
2019-03-27T00:22:12.417Z,3.13
2019-03-27T00:25:32.010Z,2.70
2019-03-27T00:28:42.388Z,3.17
2019-03-27T00:31:54.646Z,2.83
2019-03-27T00:35:04.229Z,3.20
2019-03-27T00:38:24.065Z,2.67
2019-03-27T00:41:33.476Z,3.07
2019-03-27T00:44:42.885Z,3.27
2019-03-27T00:47:53.290Z,3.00
2019-03-27T00:51:13.075Z,2.97
2019-03-27T00:54:22.472Z,4.07
2019-03-27T00:57:31.909Z,3.50
2019-03-27T01:01:14.050Z,3.20
2019-03-27T01:04:24.441Z,3.57
2019-03-27T01:07:33.948Z,2.97
2019-03-27T01:10:43.252Z,2.97
2019-03-27T01:14:02.998Z,3.53
2019-03-27T01:17:12.415Z,3.50
2019-03-27T01:20:21.833Z,3.80
2019-03-27T01:23:41.592Z,4.50
2019-03-27T01:26:51.037Z,4.63
2019-03-27T01:30:00.548Z,3.70
2019-03-27T01:33:10.263Z,3.60
2019-03-27T01:36:19.576Z,3.77
2019-03-27T01:39:39.301Z,4.40
2019-03-27T01:42:48.726Z,4.20
2019-03-27T01:45:58.213Z,4.00
2019-03-27T01:49:17.939Z,3.80
2019-03-27T01:52:27.498Z,4.07
2019-03-27T01:55:36.913Z,4.30
2019-03-27T01:58:48.252Z,4.17
2019-03-27T02:01:57.740Z,4.40
2019-03-27T02:05:08.566Z,4.23
2019-03-27T02:08:18.115Z,4.23
2019-03-27T02:11:27.581Z,3.70
2019-03-27T02:14:37.164Z,4.20
2019-03-27T02:17:46.508Z,4.33
2019-03-27T02:21:06.043Z,4.10
2019-03-27T02:24:15.464Z,4.53
2019-03-27T02:27:24.996Z,4.40
2019-03-27T02:30:44.606Z,4.17
2019-03-27T02:33:55.742Z,3.87
2019-03-27T02:37:05.041Z,4.50
2019-03-27T02:40:24.808Z,4.90
2019-03-27T02:43:34.309Z,3.97
2019-03-27T02:46:43.724Z,5.00
2019-03-27T02:50:03.566Z,4.67
2019-03-27T02:53:12.966Z,5.03
2019-03-27T02:56:22.466Z,4.17
2019-03-27T02:59:31.990Z,4.80
2019-03-27T03:02:41.324Z,5.03
2019-03-27T03:06:01.137Z,4.80
2019-03-27T03:09:10.590Z,4.87
2019-03-27T03:12:21.466Z,5.47
2019-03-27T03:15:41.501Z,4.80
2019-03-27T03:18:50.922Z,5.00
2019-03-27T03:22:00.545Z,4.57
2019-03-27T03:25:10.350Z,4.50
2019-03-27T03:28:19.665Z,5.47
2019-03-27T03:31:29.056Z,5.83
2019-03-27T03:34:38.556Z,5.03
2019-03-27T03:37:58.384Z,5.07
2019-03-27T03:41:07.765Z,4.83
2019-03-27T03:44:17.212Z,6.10
2019-03-27T03:47:36.847Z,4.73
2019-03-27T03:50:47.127Z,4.50
2019-03-27T03:53:56.961Z,5.27
2019-03-27T03:57:06.938Z,5.83
2019-03-27T04:00:16.659Z,5.20
2019-03-27T04:03:38.346Z,5.30
2019-03-27T04:06:47.728Z,5.30
2019-03-27T04:09:57.045Z,5.13
2019-03-27T04:13:06.640Z,5.70
2019-03-27T04:16:16.052Z,4.77
2019-03-27T04:19:35.587Z,5.07
2019-03-27T04:22:45.018Z,4.50
2019-03-27T04:26:09.133Z,4.83
2019-03-27T04:29:16.031Z,4.67
2019-03-27T04:32:25.365Z,5.13
2019-03-27T04:35:34.803Z,5.37
2019-03-27T04:38:44.246Z,5.90
2019-03-27T04:41:53.945Z,5.53
2019-03-27T04:45:13.897Z,5.50
2019-03-27T04:48:23.455Z,5.90
2019-03-27T04:51:32.891Z,6.60
2019-03-27T04:54:42.423Z,7.03
2019-03-27T04:57:52.120Z,7.10
2019-03-27T05:01:01.528Z,8.03
2019-03-27T05:04:11.356Z,6.80
2019-03-27T05:07:20.855Z,7.50
2019-03-27T05:10:30.475Z,7.00
2019-03-27T05:13:40.004Z,7.27
2019-03-27T05:16:49.445Z,7.23
2019-03-27T05:19:58.983Z,7.73
2019-03-27T05:23:08.634Z,7.03
2019-03-27T05:26:28.167Z,6.70
2019-03-27T05:29:37.845Z,6.43
2019-03-27T05:32:47.312Z,7.17
2019-03-27T05:35:56.344Z,7.40
2019-03-27T05:39:06.847Z,6.37
2019-03-27T05:42:14.918Z,6.60
2019-03-27T05:45:36.192Z,7.43
2019-03-27T05:48:45.671Z,7.20
2019-03-27T05:51:55.323Z,7.40
2019-03-27T05:55:15.010Z,7.23
2019-03-27T05:58:24.551Z,7.97
2019-03-27T06:01:33.945Z,7.33
2019-03-27T06:04:43.541Z,6.90
2019-03-27T06:07:52.983Z,7.13
2019-03-27T06:11:12.972Z,6.93
2019-03-27T06:14:22.518Z,7.13
2019-03-27T06:17:32.267Z,6.30
2019-03-27T06:20:41.724Z,6.67
2019-03-27T06:23:51.152Z,7.40
2019-03-27T06:26:59.056Z,7.50
2019-03-27T06:30:10.391Z,6.87
2019-03-27T06:33:20.182Z,7.90
2019-03-27T06:36:29.647Z,8.00
2019-03-27T06:39:39.188Z,8.33
2019-03-27T06:42:48.603Z,6.83
2019-03-27T06:46:08.820Z,7.43
2019-03-27T06:49:18.472Z,7.60
2019-03-27T06:52:28.629Z,7.63
2019-03-27T06:56:08.057Z,7.80
2019-03-27T06:59:17.716Z,8.43
2019-03-27T07:02:28.796Z,7.70
2019-03-27T07:05:38.225Z,8.27
2019-03-27T07:08:49.573Z,7.87
2019-03-27T07:11:59.174Z,8.10
2019-03-27T07:15:09.339Z,7.97
2019-03-27T07:18:18.739Z,8.20
2019-03-27T07:21:38.766Z,8.50
2019-03-27T07:24:48.380Z,8.50
2019-03-27T07:27:57.761Z,8.10
2019-03-27T07:31:07.132Z,7.63
2019-03-27T07:34:16.618Z,7.17
2019-03-27T07:37:36.447Z,7.33
2019-03-27T07:40:45.870Z,6.77
2019-03-27T07:43:55.477Z,6.17
2019-03-27T07:47:05.125Z,6.60
2019-03-27T07:50:15.116Z,5.73
2019-03-27T07:53:24.500Z,5.60
2019-03-27T07:56:34.171Z,5.20
2019-03-27T07:59:43.648Z,6.00
2019-03-27T08:02:53.199Z,4.87
2019-03-27T08:06:03.312Z,4.40
2019-03-27T08:09:23.254Z,4.83
2019-03-27T08:12:32.797Z,4.50
2019-03-27T08:15:42.328Z,4.30
2019-03-27T08:19:06.967Z,4.13
2019-03-27T08:22:05.512Z,3.57
2019-03-27T08:25:15.379Z,4.17
2019-03-27T08:28:24.807Z,4.10
2019-03-27T08:31:35.684Z,4.77
2019-03-27T08:34:55.268Z,4.20
2019-03-27T08:38:04.647Z,3.90
2019-03-27T08:41:14.986Z,3.90
2019-03-27T08:44:24.355Z,3.60
2019-03-27T08:47:44.194Z,3.63
2019-03-27T08:50:53.992Z,3.77
2019-03-27T08:54:03.588Z,3.87
2019-03-27T08:57:13.336Z,3.30
2019-03-27T09:00:51.541Z,3.73
2019-03-27T09:04:01.033Z,2.80
2019-03-27T09:07:10.699Z,3.50
2019-03-27T09:10:20.411Z,2.80
2019-03-27T09:13:29.968Z,2.97
2019-03-27T09:16:39.591Z,3.53
2019-03-27T09:19:49.109Z,3.10
2019-03-27T09:22:58.779Z,3.23
2019-03-27T09:26:08.221Z,2.93
2019-03-27T09:29:18.894Z,2.90
2019-03-27T09:32:28.464Z,3.20
2019-03-27T09:35:38.597Z,2.90
2019-03-27T09:38:48.022Z,2.50
2019-03-27T09:41:57.584Z,2.53
2019-03-27T09:45:18.671Z,2.27
2019-03-27T09:48:38.444Z,2.30
2019-03-27T09:51:47.928Z,2.00
2019-03-27T09:54:57.367Z,2.13
2019-03-27T09:58:17.013Z,2.83
2019-03-27T10:01:26.496Z,3.23
2019-03-27T10:04:36.454Z,2.07
2019-03-27T10:07:46.097Z,2.40
2019-03-27T10:11:05.870Z,2.70
2019-03-27T10:14:15.523Z,2.23
2019-03-27T10:17:25.076Z,1.80
2019-03-27T10:20:34.641Z,2.47
2019-03-27T10:23:44.163Z,2.70
2019-03-27T10:26:53.712Z,2.30
2019-03-27T10:30:03.358Z,1.90
2019-03-27T10:33:15.241Z,2.60
2019-03-27T10:36:24.078Z,2.00
2019-03-27T10:39:34.040Z,2.00
2019-03-27T10:42:54.234Z,2.10
2019-03-27T10:46:04.905Z,2.27
2019-03-27T10:49:14.444Z,2.43
2019-03-27T10:52:35.869Z,2.70
2019-03-27T10:55:45.411Z,2.73
2019-03-27T10:58:54.961Z,2.00
2019-03-27T11:02:04.388Z,2.40
2019-03-27T11:05:14.357Z,2.20
2019-03-27T11:08:24.019Z,2.57
2019-03-27T11:11:33.561Z,1.70
2019-03-27T11:14:43.092Z,2.10
2019-03-27T11:17:54.099Z,2.10
2019-03-27T11:21:03.878Z,1.90
2019-03-27T11:24:13.636Z,2.20
2019-03-27T11:27:23.275Z,2.20
2019-03-27T11:30:46.899Z,3.00
2019-03-27T11:34:07.919Z,2.33
2019-03-27T11:37:17.555Z,2.30
2019-03-27T11:40:37.581Z,2.00
2019-03-27T11:43:54.645Z,2.50
2019-03-27T11:46:58.477Z,2.50
2019-03-27T11:50:10.319Z,2.80
2019-03-27T11:53:19.677Z,3.33
2019-03-27T11:56:29.176Z,2.87
2019-03-27T11:59:54.219Z,3.30
2019-03-27T12:03:01.036Z,3.40
2019-03-27T12:06:10.701Z,3.33
2019-03-27T12:09:20.138Z,3.90
2019-03-27T12:12:29.686Z,3.97
2019-03-27T12:15:49.367Z,3.53
2019-03-27T12:18:58.911Z,3.40
2019-03-27T12:22:13.373Z,3.37
2019-03-27T12:25:23.117Z,3.97
2019-03-27T12:28:32.489Z,3.57
2019-03-27T12:31:41.964Z,3.10
2019-03-27T12:34:51.471Z,3.13
2019-03-27T12:38:11.077Z,2.63
2019-03-27T12:41:20.879Z,3.30
2019-03-27T12:44:30.423Z,2.33
2019-03-27T12:47:39.972Z,2.60
2019-03-27T12:50:49.427Z,2.10
2019-03-27T12:53:59.063Z,2.10
2019-03-27T12:57:08.512Z,2.13
2019-03-27T13:00:28.031Z,2.30
2019-03-27T13:03:38.093Z,3.10
2019-03-27T13:06:57.813Z,2.87
2019-03-27T13:10:07.846Z,3.30
2019-03-27T13:13:27.578Z,3.00
2019-03-27T13:16:37.003Z,2.90
2019-03-27T13:19:46.550Z,4.00
2019-03-27T13:23:09.548Z,4.53
2019-03-27T13:26:19.158Z,4.63
2019-03-27T13:29:39.134Z,3.53
2019-03-27T13:32:48.606Z,3.53
2019-03-27T13:35:58.337Z,2.73
2019-03-27T13:39:09.978Z,2.63
2019-03-27T13:42:29.717Z,2.70
2019-03-27T13:45:39.464Z,3.03
2019-03-27T13:48:50.549Z,3.20
2019-03-27T13:52:00.021Z,2.60
2019-03-27T13:55:10.085Z,3.17
2019-03-27T13:58:19.455Z,2.27
2019-03-27T14:01:28.888Z,2.90
2019-03-27T14:04:38.479Z,2.60
2019-03-27T14:07:48.002Z,1.93
2019-03-27T14:10:57.488Z,2.03
2019-03-27T14:14:11.555Z,2.00
2019-03-27T14:17:18.240Z,1.97
2019-03-27T14:20:28.864Z,1.40
2019-03-27T14:23:38.414Z,1.47
2019-03-27T14:26:47.870Z,1.63
2019-03-27T14:29:57.595Z,1.40
2019-03-27T14:33:06.923Z,1.43
2019-03-27T14:36:16.527Z,1.33
2019-03-27T14:39:36.250Z,1.30
2019-03-27T14:42:45.700Z,1.60
2019-03-27T14:45:55.357Z,1.10
2019-03-27T14:49:04.913Z,1.30
2019-03-27T14:52:14.446Z,1.60
2019-03-27T14:55:34.157Z,1.47
2019-03-27T14:58:43.648Z,1.67
2019-03-27T15:01:56.325Z,1.30
2019-03-27T15:05:06.264Z,1.30
2019-03-27T15:08:15.722Z,1.57
2019-03-27T15:11:25.339Z,1.50
2019-03-27T15:14:34.836Z,1.77
2019-03-27T15:17:44.323Z,1.70
2019-03-27T15:20:53.867Z,1.50
2019-03-27T15:24:03.412Z,1.80
2019-03-27T15:27:13.057Z,1.60
2019-03-27T15:30:32.742Z,2.00
2019-03-27T15:33:42.182Z,1.60
2019-03-27T15:36:51.727Z,1.63
2019-03-27T15:40:01.072Z,1.93
2019-03-27T15:43:10.717Z,1.83
2019-03-27T15:46:30.384Z,1.97
2019-03-27T15:49:39.893Z,2.50
2019-03-27T15:52:49.518Z,2.30
2019-03-27T15:55:59.033Z,2.20
2019-03-27T15:59:08.478Z,2.70
2019-03-27T16:02:18.031Z,2.50
2019-03-27T16:05:27.391Z,2.60
2019-03-27T16:08:36.872Z,2.30
2019-03-27T16:11:46.421Z,2.70
2019-03-27T16:14:56.009Z,2.93
2019-03-27T16:18:05.850Z,3.20
2019-03-27T16:21:25.779Z,3.40
2019-03-27T16:24:35.589Z,3.40
2019-03-27T16:27:45.134Z,4.13
2019-03-27T16:30:55.611Z,3.40
2019-03-27T16:34:05.347Z,4.17
2019-03-27T16:37:25.233Z,3.73
2019-03-27T16:40:50.745Z,3.90
2019-03-27T16:44:00.354Z,4.10
2019-03-27T16:47:09.944Z,4.57
2019-03-27T16:50:19.623Z,4.20
2019-03-27T16:53:29.035Z,5.07
2019-03-27T16:56:38.671Z,4.43
2019-03-27T16:59:48.224Z,4.60
2019-03-27T17:02:57.724Z,4.30
2019-03-27T17:06:17.451Z,4.77
2019-03-27T17:09:26.908Z,4.43
2019-03-27T17:12:36.454Z,4.63
2019-03-27T17:15:46.091Z,4.33
2019-03-27T17:18:55.634Z,5.00
2019-03-27T17:22:18.916Z,4.50
2019-03-27T17:25:17.508Z,4.90
2019-03-27T17:28:37.519Z,4.63
2019-03-27T17:31:46.950Z,4.90
2019-03-27T17:34:56.466Z,4.73
2019-03-27T17:38:06.097Z,4.77
2019-03-27T17:41:16.889Z,4.40
2019-03-27T17:44:27.455Z,3.70
2019-03-27T17:47:47.221Z,2.87
2019-03-27T17:50:56.763Z,3.20
2019-03-27T17:54:19.663Z,3.40
2019-03-27T17:57:17.373Z,3.03
2019-03-27T18:00:47.983Z,3.40
2019-03-27T18:03:57.388Z,2.83
2019-03-27T18:07:07.009Z,2.83
2019-03-27T18:10:16.926Z,2.50
2019-03-27T18:13:26.279Z,2.90
2019-03-27T18:16:35.781Z,2.90
2019-03-27T18:19:45.423Z,3.40
2019-03-27T18:23:05.137Z,3.00
2019-03-27T18:26:14.652Z,3.30
2019-03-27T18:29:24.073Z,3.17
2019-03-27T18:32:33.447Z,3.60
2019-03-27T18:35:42.930Z,3.57
2019-03-27T18:39:02.860Z,3.23
2019-03-27T18:42:12.522Z,3.60
2019-03-27T18:45:32.622Z,3.47
2019-03-27T18:48:42.154Z,3.63
2019-03-27T18:51:53.271Z,4.17
2019-03-27T18:55:02.859Z,5.13
2019-03-27T18:58:12.527Z,4.20
2019-03-27T19:01:22.273Z,4.43
2019-03-27T19:04:31.807Z,5.00
2019-03-27T19:07:41.338Z,5.40
2019-03-27T19:10:50.691Z,5.20
2019-03-27T19:14:00.351Z,5.53
2019-03-27T19:17:09.805Z,5.83
2019-03-27T19:20:30.606Z,5.80
2019-03-27T19:23:50.466Z,6.30
2019-03-27T19:27:00.465Z,5.77
2019-03-27T19:30:11.961Z,5.47
2019-03-27T19:33:21.411Z,6.20
2019-03-27T19:36:31.126Z,6.30
2019-03-27T19:39:40.580Z,5.47
2019-03-27T19:42:50.099Z,5.97
2019-03-27T19:45:59.658Z,5.87
2019-03-27T19:49:19.439Z,5.93
2019-03-27T19:52:28.999Z,6.07
2019-03-27T19:55:38.637Z,6.17
2019-03-27T19:58:48.114Z,5.83
2019-03-27T20:01:57.591Z,5.97
2019-03-27T20:05:07.321Z,6.80
2019-03-27T20:08:16.678Z,5.33
2019-03-27T20:11:36.688Z,8.80
2019-03-27T20:14:46.140Z,9.50
2019-03-27T20:17:55.722Z,6.33
2019-03-27T20:21:05.243Z,6.67
2019-03-27T20:24:14.651Z,6.47
2019-03-27T20:27:24.422Z,6.50
2019-03-27T20:30:32.297Z,6.60
2019-03-27T20:33:41.876Z,7.80
2019-03-27T20:36:51.419Z,7.67
2019-03-27T20:40:00.794Z,8.00
2019-03-27T20:43:10.249Z,8.03
2019-03-27T20:46:25.402Z,7.60
2019-03-27T20:49:31.036Z,7.70
2019-03-27T20:52:40.682Z,8.83
2019-03-27T20:55:53.596Z,8.07
2019-03-27T20:59:03.996Z,7.93
2019-03-27T21:02:26.159Z,8.63
2019-03-27T21:05:35.659Z,8.60
2019-03-27T21:08:45.328Z,9.03
2019-03-27T21:11:56.394Z,9.30
2019-03-27T21:15:16.177Z,8.63
2019-03-27T21:18:26.435Z,8.80
2019-03-27T21:21:42.131Z,8.73
2019-03-27T21:24:51.879Z,9.57
2019-03-27T21:28:01.532Z,8.90
2019-03-27T21:31:11.005Z,9.47
2019-03-27T21:34:20.574Z,9.63
2019-03-27T21:37:28.569Z,8.70
2019-03-27T21:40:39.462Z,8.50
2019-03-27T21:43:50.403Z,9.33
2019-03-27T21:46:59.989Z,8.27
2019-03-27T21:50:10.595Z,8.67
2019-03-27T21:53:19.946Z,8.63
2019-03-27T21:56:30.662Z,8.47
2019-03-27T21:59:50.753Z,7.90
2019-03-27T22:03:01.111Z,7.97
2019-03-27T22:06:10.605Z,8.13
2019-03-27T22:09:20.177Z,7.90
2019-03-27T22:12:29.688Z,8.90
2019-03-27T22:15:39.269Z,8.07
2019-03-27T22:18:48.596Z,8.43
2019-03-27T22:21:58.115Z,8.63
2019-03-27T22:25:17.901Z,8.30
2019-03-27T22:28:28.174Z,8.47
2019-03-27T22:31:37.573Z,8.00
2019-03-27T22:34:47.247Z,8.83
2019-03-27T22:38:06.952Z,8.03
2019-03-27T22:41:16.374Z,7.93
2019-03-27T22:44:25.917Z,9.60
2019-03-27T22:47:35.465Z,8.50
2019-03-27T22:50:45.007Z,7.60
2019-03-27T22:54:24.151Z,7.93
2019-03-27T22:57:33.600Z,8.10
2019-03-27T23:00:50.407Z,7.80
2019-03-27T23:03:59.947Z,8.77
2019-03-27T23:07:19.493Z,8.33
2019-03-27T23:10:28.970Z,7.53
2019-03-27T23:13:38.320Z,7.53
2019-03-27T23:16:58.203Z,7.90
2019-03-27T23:20:10.715Z,7.53
2019-03-27T23:23:20.127Z,7.97
2019-03-27T23:26:39.823Z,7.93
2019-03-27T23:29:49.491Z,6.97
2019-03-27T23:32:58.969Z,7.47
2019-03-27T23:36:08.588Z,7.70
2019-03-27T23:39:17.718Z,7.87
2019-03-27T23:42:37.572Z,7.70
2019-03-27T23:45:47.142Z,7.83
2019-03-27T23:48:56.176Z,7.93
2019-03-27T23:52:05.650Z,6.63
2019-03-27T23:55:15.166Z,7.53
2019-03-27T23:58:24.555Z,6.77
